sensor_id;sensor_type;location;lat;lon;timestamp;temperature;humidity
1678;DHT22;6034;46.864;15.216;2024-02-23T06:00:45;9.10;98.50
1678;DHT22;6034;46.864;15.216;2024-02-23T06:03:13;9.20;98.40
1678;DHT22;6034;46.864;15.216;2024-02-23T06:05:40;9.30;98.50
1678;DHT22;6034;46.864;15.216;2024-02-23T06:08:07;9.30;98.50
1678;DHT22;6034;46.864;15.216;2024-02-23T06:10:34;9.20;98.10
1678;DHT22;6034;46.864;15.216;2024-02-23T06:13:03;9.30;98.00
1678;DHT22;6034;46.864;15.216;2024-02-23T06:15:31;9.40;98.00
1678;DHT22;6034;46.864;15.216;2024-02-23T06:17:59;9.40;97.90
1678;DHT22;6034;46.864;15.216;2024-02-23T06:20:27;9.40;98.10
1678;DHT22;6034;46.864;15.216;2024-02-23T06:22:55;9.20;98.40
1678;DHT22;6034;46.864;15.216;2024-02-23T06:25:22;9.20;98.70
1678;DHT22;6034;46.864;15.216;2024-02-23T06:27:50;9.20;98.70
1678;DHT22;6034;46.864;15.216;2024-02-23T06:30:17;9.20;98.60
1678;DHT22;6034;46.864;15.216;2024-02-23T06:32:45;9.20;98.70
1678;DHT22;6034;46.864;15.216;2024-02-23T06:35:14;9.10;98.80
1678;DHT22;6034;46.864;15.216;2024-02-23T06:37:41;9.10;98.60
1678;DHT22;6034;46.864;15.216;2024-02-23T06:40:09;9.30;98.60
1678;DHT22;6034;46.864;15.216;2024-02-23T06:42:36;9.30;98.50
1678;DHT22;6034;46.864;15.216;2024-02-23T06:45:05;9.30;98.90
1678;DHT22;6034;46.864;15.216;2024-02-23T06:47:33;9.30;99.10
1678;DHT22;6034;46.864;15.216;2024-02-23T06:50:00;9.20;98.70
1678;DHT22;6034;46.864;15.216;2024-02-23T06:52:30;9.30;98.70
1678;DHT22;6034;46.864;15.216;2024-02-23T06:54:59;9.40;98.50
1678;DHT22;6034;46.864;15.216;2024-02-23T06:57:26;9.40;98.40
1678;DHT22;6034;46.864;15.216;2024-02-23T06:59:53;9.40;98.40
1678;DHT22;6034;46.864;15.216;2024-02-23T07:02:21;9.30;98.80
1678;DHT22;6034;46.864;15.216;2024-02-23T07:04:48;9.30;98.90
1678;DHT22;6034;46.864;15.216;2024-02-23T07:07:15;9.30;98.80
1678;DHT22;6034;46.864;15.216;2024-02-23T07:09:45;9.30;98.80
1678;DHT22;6034;46.864;15.216;2024-02-23T07:12:13;9.30;98.70
1678;DHT22;6034;46.864;15.216;2024-02-23T07:14:40;9.30;98.90
1678;DHT22;6034;46.864;15.216;2024-02-23T07:17:07;9.30;98.90
1678;DHT22;6034;46.864;15.216;2024-02-23T07:19:35;9.30;99.10
1678;DHT22;6034;46.864;15.216;2024-02-23T07:22:03;9.30;99.20
1678;DHT22;6034;46.864;15.216;2024-02-23T07:24:30;9.20;99.30
1678;DHT22;6034;46.864;15.216;2024-02-23T07:27:00;9.30;99.40
1678;DHT22;6034;46.864;15.216;2024-02-23T07:29:27;9.40;99.00
1678;DHT22;6034;46.864;15.216;2024-02-23T07:31:55;9.30;99.10
1678;DHT22;6034;46.864;15.216;2024-02-23T07:34:22;9.30;99.20
1678;DHT22;6034;46.864;15.216;2024-02-23T07:36:51;9.30;99.10
1678;DHT22;6034;46.864;15.216;2024-02-23T07:39:19;9.40;99.10
1678;DHT22;6034;46.864;15.216;2024-02-23T07:41:47;9.40;99.00
1678;DHT22;6034;46.864;15.216;2024-02-23T07:44:16;9.40;99.40
1678;DHT22;6034;46.864;15.216;2024-02-23T07:46:43;9.40;99.70
1678;DHT22;6034;46.864;15.216;2024-02-23T07:49:10;9.30;99.70
1678;DHT22;6034;46.864;15.216;2024-02-23T07:51:38;9.40;99.50
1678;DHT22;6034;46.864;15.216;2024-02-23T07:54:05;9.40;99.60
1678;DHT22;6034;46.864;15.216;2024-02-23T07:56:32;9.40;99.70
1678;DHT22;6034;46.864;15.216;2024-02-23T07:59:00;9.40;99.60
1678;DHT22;6034;46.864;15.216;2024-02-23T08:01:30;9.50;99.50
1678;DHT22;6034;46.864;15.216;2024-02-23T08:03:57;9.50;99.30
1678;DHT22;6034;46.864;15.216;2024-02-23T08:06:25;9.50;99.30
1678;DHT22;6034;46.864;15.216;2024-02-23T08:08:52;9.60;99.40
1678;DHT22;6034;46.864;15.216;2024-02-23T08:11:21;9.60;99.70
1678;DHT22;6034;46.864;15.216;2024-02-23T08:13:48;9.50;99.90
1678;DHT22;6034;46.864;15.216;2024-02-23T08:16:16;9.50;99.90
1678;DHT22;6034;46.864;15.216;2024-02-23T08:18:45;9.40;99.90
1678;DHT22;6034;46.864;15.216;2024-02-23T08:21:13;9.40;99.90
1678;DHT22;6034;46.864;15.216;2024-02-23T08:23:40;9.50;99.90
1678;DHT22;6034;46.864;15.216;2024-02-23T08:26:08;9.40;99.90
1678;DHT22;6034;46.864;15.216;2024-02-23T08:28:36;9.30;99.90
1678;DHT22;6034;46.864;15.216;2024-02-23T08:31:03;9.40;99.90
1678;DHT22;6034;46.864;15.216;2024-02-23T08:33:30;9.50;99.90
1678;DHT22;6034;46.864;15.216;2024-02-23T08:36:00;9.60;99.90
1678;DHT22;6034;46.864;15.216;2024-02-23T08:38:27;9.60;99.90
1678;DHT22;6034;46.864;15.216;2024-02-23T08:40:54;9.60;99.90
1678;DHT22;6034;46.864;15.216;2024-02-23T08:43:22;9.50;99.90
1678;DHT22;6034;46.864;15.216;2024-02-23T08:45:49;9.60;99.90
1678;DHT22;6034;46.864;15.216;2024-02-23T08:48:17;9.70;99.90
1678;DHT22;6034;46.864;15.216;2024-02-23T08:50:44;9.70;99.90
1678;DHT22;6034;46.864;15.216;2024-02-23T08:53:14;9.70;99.90
1678;DHT22;6034;46.864;15.216;2024-02-23T08:55:41;9.70;99.90
1678;DHT22;6034;46.864;15.216;2024-02-23T08:58:08;9.50;99.90
1678;DHT22;6034;46.864;15.216;2024-02-23T09:00:36;9.30;99.90
1678;DHT22;6034;46.864;15.216;2024-02-23T09:03:04;9.40;99.90
1678;DHT22;6034;46.864;15.216;2024-02-23T09:05:31;9.40;99.90
1678;DHT22;6034;46.864;15.216;2024-02-23T09:07:59;9.40;99.90
1678;DHT22;6034;46.864;15.216;2024-02-23T09:10:27;9.40;99.90
1678;DHT22;6034;46.864;15.216;2024-02-23T09:12:55;9.40;99.90
1678;DHT22;6034;46.864;15.216;2024-02-23T09:15:22;9.20;99.90
1678;DHT22;6034;46.864;15.216;2024-02-23T09:17:49;9.30;99.90
1678;DHT22;6034;46.864;15.216;2024-02-23T09:20:17;9.40;99.90
1678;DHT22;6034;46.864;15.216;2024-02-23T09:22:44;9.40;99.90
1678;DHT22;6034;46.864;15.216;2024-02-23T09:25:12;9.40;99.90
1678;DHT22;6034;46.864;15.216;2024-02-23T09:27:41;9.50;99.90
1678;DHT22;6034;46.864;15.216;2024-02-23T09:30:11;9.40;99.90
1678;DHT22;6034;46.864;15.216;2024-02-23T09:32:39;9.40;99.90
1678;DHT22;6034;46.864;15.216;2024-02-23T09:35:07;9.40;99.90
1678;DHT22;6034;46.864;15.216;2024-02-23T09:37:34;9.50;99.90
1678;DHT22;6034;46.864;15.216;2024-02-23T09:40:01;9.30;99.90
1678;DHT22;6034;46.864;15.216;2024-02-23T09:42:29;9.10;99.90
1678;DHT22;6034;46.864;15.216;2024-02-23T09:45:00;9.20;99.90
1678;DHT22;6034;46.864;15.216;2024-02-23T09:47:27;9.30;99.90
1678;DHT22;6034;46.864;15.216;2024-02-23T09:49:55;9.00;99.90
1678;DHT22;6034;46.864;15.216;2024-02-23T09:52:23;9.20;99.90
1678;DHT22;6034;46.864;15.216;2024-02-23T09:54:51;9.20;99.90
1678;DHT22;6034;46.864;15.216;2024-02-23T09:57:21;9.10;99.90
1678;DHT22;6034;46.864;15.216;2024-02-23T09:59:49;9.00;99.90
1678;DHT22;6034;46.864;15.216;2024-02-23T10:02:20;9.10;99.90
1678;DHT22;6034;46.864;15.216;2024-02-23T10:04:50;9.00;99.90
1678;DHT22;6034;46.864;15.216;2024-02-23T10:07:18;9.10;99.90
1678;DHT22;6034;46.864;15.216;2024-02-23T10:09:46;9.00;99.90
1678;DHT22;6034;46.864;15.216;2024-02-23T10:12:13;9.10;99.90
1678;DHT22;6034;46.864;15.216;2024-02-23T10:14:43;9.20;99.90
1678;DHT22;6034;46.864;15.216;2024-02-23T10:17:11;9.40;99.90
1678;DHT22;6034;46.864;15.216;2024-02-23T10:19:40;9.40;99.90
1678;DHT22;6034;46.864;15.216;2024-02-23T10:22:07;9.40;99.90
1678;DHT22;6034;46.864;15.216;2024-02-23T10:24:36;9.10;99.90
1678;DHT22;6034;46.864;15.216;2024-02-23T10:27:04;9.00;99.90
1678;DHT22;6034;46.864;15.216;2024-02-23T10:29:32;9.20;99.90
1678;DHT22;6034;46.864;15.216;2024-02-23T10:32:00;9.20;99.90
1678;DHT22;6034;46.864;15.216;2024-02-23T10:34:29;9.20;99.90
1678;DHT22;6034;46.864;15.216;2024-02-23T10:36:59;9.30;99.90
1678;DHT22;6034;46.864;15.216;2024-02-23T10:39:29;9.40;99.90
1678;DHT22;6034;46.864;15.216;2024-02-23T10:42:00;9.40;99.90
1678;DHT22;6034;46.864;15.216;2024-02-23T10:44:29;9.30;99.90
1678;DHT22;6034;46.864;15.216;2024-02-23T10:46:58;9.40;99.90
1678;DHT22;6034;46.864;15.216;2024-02-23T10:49:26;9.30;99.90
1678;DHT22;6034;46.864;15.216;2024-02-23T10:51:54;9.30;99.90
1678;DHT22;6034;46.864;15.216;2024-02-23T10:54:23;9.50;99.90
1678;DHT22;6034;46.864;15.216;2024-02-23T10:56:51;9.50;99.90
1678;DHT22;6034;46.864;15.216;2024-02-23T10:59:21;9.50;99.90
1678;DHT22;6034;46.864;15.216;2024-02-23T11:01:50;9.50;99.90
1678;DHT22;6034;46.864;15.216;2024-02-23T11:04:21;9.50;99.90
1678;DHT22;6034;46.864;15.216;2024-02-23T11:06:50;9.60;99.90
1678;DHT22;6034;46.864;15.216;2024-02-23T11:09:21;9.60;99.90
1678;DHT22;6034;46.864;15.216;2024-02-23T11:11:54;9.60;99.90
1678;DHT22;6034;46.864;15.216;2024-02-23T11:14:32;9.60;99.90
1678;DHT22;6034;46.864;15.216;2024-02-23T11:17:00;9.60;99.90
1678;DHT22;6034;46.864;15.216;2024-02-23T11:19:36;9.60;99.90
1678;DHT22;6034;46.864;15.216;2024-02-23T11:22:04;9.70;99.90
1678;DHT22;6034;46.864;15.216;2024-02-23T11:24:32;9.60;99.90
1678;DHT22;6034;46.864;15.216;2024-02-23T11:27:01;9.60;99.90
1678;DHT22;6034;46.864;15.216;2024-02-23T11:29:34;9.50;99.90
1678;DHT22;6034;46.864;15.216;2024-02-23T11:32:02;9.50;99.90
1678;DHT22;6034;46.864;15.216;2024-02-23T11:34:30;9.40;99.90
1678;DHT22;6034;46.864;15.216;2024-02-23T11:36:58;9.50;99.90
1678;DHT22;6034;46.864;15.216;2024-02-23T11:39:34;9.50;99.90
1678;DHT22;6034;46.864;15.216;2024-02-23T11:42:04;9.60;99.90
1678;DHT22;6034;46.864;15.216;2024-02-23T11:44:32;9.50;99.90
1678;DHT22;6034;46.864;15.216;2024-02-23T11:47:00;9.60;99.90
1678;DHT22;6034;46.864;15.216;2024-02-23T11:49:30;9.70;99.90
1678;DHT22;6034;46.864;15.216;2024-02-23T11:51:57;9.70;99.90
1678;DHT22;6034;46.864;15.216;2024-02-23T11:54:25;9.70;99.90
1678;DHT22;6034;46.864;15.216;2024-02-23T11:56:52;9.60;99.90
1678;DHT22;6034;46.864;15.216;2024-02-23T11:59:21;9.60;99.90
1678;DHT22;6034;46.864;15.216;2024-02-23T12:01:50;9.70;99.90
1678;DHT22;6034;46.864;15.216;2024-02-23T12:04:17;9.70;99.90
1678;DHT22;6034;46.864;15.216;2024-02-23T12:06:46;9.80;99.90
1678;DHT22;6034;46.864;15.216;2024-02-23T12:09:14;9.80;99.90
1678;DHT22;6034;46.864;15.216;2024-02-23T12:11:42;9.70;99.90
1678;DHT22;6034;46.864;15.216;2024-02-23T12:14:09;9.80;99.90
1678;DHT22;6034;46.864;15.216;2024-02-23T12:16:40;9.60;99.90
1678;DHT22;6034;46.864;15.216;2024-02-23T12:19:08;9.60;99.90
1678;DHT22;6034;46.864;15.216;2024-02-23T12:21:35;9.70;99.90
1678;DHT22;6034;46.864;15.216;2024-02-23T12:24:04;9.70;99.90
1678;DHT22;6034;46.864;15.216;2024-02-23T12:26:33;9.80;99.90
1678;DHT22;6034;46.864;15.216;2024-02-23T12:29:01;9.60;99.90
1678;DHT22;6034;46.864;15.216;2024-02-23T12:31:32;9.60;99.90
1678;DHT22;6034;46.864;15.216;2024-02-23T12:34:01;9.60;99.90
1678;DHT22;6034;46.864;15.216;2024-02-23T12:36:29;9.70;99.90
1678;DHT22;6034;46.864;15.216;2024-02-23T12:39:00;9.80;99.90
1678;DHT22;6034;46.864;15.216;2024-02-23T12:41:28;9.70;99.90
1678;DHT22;6034;46.864;15.216;2024-02-23T12:44:08;9.40;99.90
1678;DHT22;6034;46.864;15.216;2024-02-23T12:46:35;9.50;99.90
1678;DHT22;6034;46.864;15.216;2024-02-23T12:49:05;9.60;99.90
1678;DHT22;6034;46.864;15.216;2024-02-23T12:51:33;9.70;99.90
1678;DHT22;6034;46.864;15.216;2024-02-23T12:54:01;9.40;99.90
1678;DHT22;6034;46.864;15.216;2024-02-23T12:56:29;9.20;99.90
1678;DHT22;6034;46.864;15.216;2024-02-23T12:58:56;9.40;99.90
1678;DHT22;6034;46.864;15.216;2024-02-23T13:01:25;9.60;99.90
1678;DHT22;6034;46.864;15.216;2024-02-23T13:03:52;9.50;99.90
1678;DHT22;6034;46.864;15.216;2024-02-23T13:06:22;9.60;99.90
1678;DHT22;6034;46.864;15.216;2024-02-23T13:08:49;9.70;99.90
1678;DHT22;6034;46.864;15.216;2024-02-23T13:11:17;9.70;99.90
1678;DHT22;6034;46.864;15.216;2024-02-23T13:13:44;9.50;99.90
1678;DHT22;6034;46.864;15.216;2024-02-23T13:16:11;9.40;99.90
1678;DHT22;6034;46.864;15.216;2024-02-23T13:18:40;9.50;99.90
1678;DHT22;6034;46.864;15.216;2024-02-23T13:21:08;9.60;99.90
1678;DHT22;6034;46.864;15.216;2024-02-23T13:23:37;9.70;99.90
1678;DHT22;6034;46.864;15.216;2024-02-23T13:26:05;9.60;99.90
1678;DHT22;6034;46.864;15.216;2024-02-23T13:28:33;9.70;99.90
1678;DHT22;6034;46.864;15.216;2024-02-23T13:31:07;9.50;99.90
1678;DHT22;6034;46.864;15.216;2024-02-23T13:33:35;9.20;99.90
1678;DHT22;6034;46.864;15.216;2024-02-23T13:36:02;9.50;99.90
1678;DHT22;6034;46.864;15.216;2024-02-23T13:38:30;9.50;99.90
1678;DHT22;6034;46.864;15.216;2024-02-23T13:40:59;9.60;99.90
1678;DHT22;6034;46.864;15.216;2024-02-23T13:43:26;9.50;99.90
1678;DHT22;6034;46.864;15.216;2024-02-23T13:45:53;9.40;99.90
1678;DHT22;6034;46.864;15.216;2024-02-23T13:48:20;9.50;99.90
1678;DHT22;6034;46.864;15.216;2024-02-23T13:50:48;9.50;99.90
1678;DHT22;6034;46.864;15.216;2024-02-23T13:53:16;9.60;99.90
1678;DHT22;6034;46.864;15.216;2024-02-23T13:55:43;9.40;99.90
1678;DHT22;6034;46.864;15.216;2024-02-23T13:58:13;9.50;99.90
1678;DHT22;6034;46.864;15.216;2024-02-23T14:00:40;9.40;99.90
1678;DHT22;6034;46.864;15.216;2024-02-23T14:03:07;9.50;99.90
1678;DHT22;6034;46.864;15.216;2024-02-23T14:05:35;9.60;99.90
1678;DHT22;6034;46.864;15.216;2024-02-23T14:08:03;9.60;99.90
1678;DHT22;6034;46.864;15.216;2024-02-23T14:10:31;9.60;99.90
1678;DHT22;6034;46.864;15.216;2024-02-23T14:12:58;9.50;99.90
1678;DHT22;6034;46.864;15.216;2024-02-23T14:15:27;9.60;99.90
1678;DHT22;6034;46.864;15.216;2024-02-23T14:17:54;9.60;99.90
1678;DHT22;6034;46.864;15.216;2024-02-23T14:20:21;9.60;99.90
1678;DHT22;6034;46.864;15.216;2024-02-23T14:22:49;9.60;99.90
1678;DHT22;6034;46.864;15.216;2024-02-23T14:25:18;9.60;99.90
1678;DHT22;6034;46.864;15.216;2024-02-23T14:27:45;9.50;99.90
1678;DHT22;6034;46.864;15.216;2024-02-23T14:30:14;9.60;99.90
1678;DHT22;6034;46.864;15.216;2024-02-23T14:32:42;9.60;99.90
1678;DHT22;6034;46.864;15.216;2024-02-23T14:35:10;9.30;99.90
1678;DHT22;6034;46.864;15.216;2024-02-23T14:37:37;9.30;99.90
1678;DHT22;6034;46.864;15.216;2024-02-23T14:40:06;9.50;99.90
1678;DHT22;6034;46.864;15.216;2024-02-23T14:42:34;9.50;99.90
1678;DHT22;6034;46.864;15.216;2024-02-23T14:45:02;9.50;99.90
1678;DHT22;6034;46.864;15.216;2024-02-23T14:47:29;9.50;99.90
1678;DHT22;6034;46.864;15.216;2024-02-23T14:49:58;9.50;99.90
1678;DHT22;6034;46.864;15.216;2024-02-23T14:52:25;9.50;99.90
1678;DHT22;6034;46.864;15.216;2024-02-23T14:54:53;9.40;99.90
1678;DHT22;6034;46.864;15.216;2024-02-23T14:57:20;9.50;99.90
1678;DHT22;6034;46.864;15.216;2024-02-23T14:59:48;9.50;99.90
1678;DHT22;6034;46.864;15.216;2024-02-23T15:02:19;9.20;99.90
1678;DHT22;6034;46.864;15.216;2024-02-23T15:04:46;9.20;99.90
1678;DHT22;6034;46.864;15.216;2024-02-23T15:07:15;9.10;99.90
1678;DHT22;6034;46.864;15.216;2024-02-23T15:09:43;9.10;99.90
1678;DHT22;6034;46.864;15.216;2024-02-23T15:12:11;8.80;99.90
1678;DHT22;6034;46.864;15.216;2024-02-23T15:14:39;8.90;99.90
1678;DHT22;6034;46.864;15.216;2024-02-23T15:17:07;8.90;99.90
1678;DHT22;6034;46.864;15.216;2024-02-23T15:19:35;8.90;99.90
1678;DHT22;6034;46.864;15.216;2024-02-23T15:22:02;9.10;99.90
1678;DHT22;6034;46.864;15.216;2024-02-23T15:24:32;9.10;99.90
1678;DHT22;6034;46.864;15.216;2024-02-23T15:26:59;9.00;99.90
1678;DHT22;6034;46.864;15.216;2024-02-23T15:29:27;8.90;99.90
1678;DHT22;6034;46.864;15.216;2024-02-23T15:31:54;8.80;99.90
1678;DHT22;6034;46.864;15.216;2024-02-23T15:34:21;8.80;99.90
1678;DHT22;6034;46.864;15.216;2024-02-23T15:36:49;8.80;99.90
1678;DHT22;6034;46.864;15.216;2024-02-23T15:39:16;8.80;99.90
1678;DHT22;6034;46.864;15.216;2024-02-23T15:41:46;8.80;99.90
1678;DHT22;6034;46.864;15.216;2024-02-23T15:44:14;8.80;99.90
1678;DHT22;6034;46.864;15.216;2024-02-23T15:46:43;8.70;99.90
1678;DHT22;6034;46.864;15.216;2024-02-23T15:49:11;8.70;99.90
1678;DHT22;6034;46.864;15.216;2024-02-23T15:51:40;8.70;99.90
1678;DHT22;6034;46.864;15.216;2024-02-23T15:54:07;8.70;99.90
1678;DHT22;6034;46.864;15.216;2024-02-23T15:56:36;8.70;99.90
1678;DHT22;6034;46.864;15.216;2024-02-23T15:59:05;8.80;99.90
1678;DHT22;6034;46.864;15.216;2024-02-23T16:01:34;8.90;99.90
1678;DHT22;6034;46.864;15.216;2024-02-23T16:04:02;8.90;99.90
1678;DHT22;6034;46.864;15.216;2024-02-23T16:06:31;8.70;99.90
1678;DHT22;6034;46.864;15.216;2024-02-23T16:09:01;8.80;99.90
1678;DHT22;6034;46.864;15.216;2024-02-23T16:11:33;8.80;99.90
1678;DHT22;6034;46.864;15.216;2024-02-23T16:14:05;8.80;99.90
1678;DHT22;6034;46.864;15.216;2024-02-23T16:16:32;8.70;99.90
1678;DHT22;6034;46.864;15.216;2024-02-23T16:19:00;8.80;99.90
1678;DHT22;6034;46.864;15.216;2024-02-23T16:21:27;8.80;99.90
1678;DHT22;6034;46.864;15.216;2024-02-23T16:23:57;8.80;99.90
1678;DHT22;6034;46.864;15.216;2024-02-23T16:26:26;8.80;99.90
1678;DHT22;6034;46.864;15.216;2024-02-23T16:28:54;8.90;99.90
1678;DHT22;6034;46.864;15.216;2024-02-23T16:31:25;8.90;99.90
1678;DHT22;6034;46.864;15.216;2024-02-23T16:33:53;8.90;99.90
1678;DHT22;6034;46.864;15.216;2024-02-23T16:36:20;8.90;99.90
1678;DHT22;6034;46.864;15.216;2024-02-23T16:38:47;9.00;99.90
1678;DHT22;6034;46.864;15.216;2024-02-23T16:41:15;9.00;99.90
1678;DHT22;6034;46.864;15.216;2024-02-23T16:43:42;9.00;99.90
1678;DHT22;6034;46.864;15.216;2024-02-23T16:46:10;9.00;99.90
1678;DHT22;6034;46.864;15.216;2024-02-23T16:48:40;9.00;99.90
1678;DHT22;6034;46.864;15.216;2024-02-23T16:51:07;8.90;99.90
1678;DHT22;6034;46.864;15.216;2024-02-23T16:53:34;8.80;99.90
1678;DHT22;6034;46.864;15.216;2024-02-23T16:56:03;8.90;99.90
1678;DHT22;6034;46.864;15.216;2024-02-23T16:58:32;8.90;99.90
1678;DHT22;6034;46.864;15.216;2024-02-23T17:01:01;9.00;99.90
1678;DHT22;6034;46.864;15.216;2024-02-23T17:03:33;8.80;99.90
1678;DHT22;6034;46.864;15.216;2024-02-23T17:06:02;8.60;99.90
1678;DHT22;6034;46.864;15.216;2024-02-23T17:08:31;8.80;99.90
1678;DHT22;6034;46.864;15.216;2024-02-23T17:10:59;8.90;99.90
1678;DHT22;6034;46.864;15.216;2024-02-23T17:13:26;8.90;99.90
1678;DHT22;6034;46.864;15.216;2024-02-23T17:15:54;9.00;99.90
1678;DHT22;6034;46.864;15.216;2024-02-23T17:18:21;9.00;99.90
1678;DHT22;6034;46.864;15.216;2024-02-23T17:20:49;8.90;99.90
1678;DHT22;6034;46.864;15.216;2024-02-23T17:23:22;8.80;99.90
1678;DHT22;6034;46.864;15.216;2024-02-23T17:25:50;8.90;99.90
1678;DHT22;6034;46.864;15.216;2024-02-23T17:28:17;9.00;99.90
1678;DHT22;6034;46.864;15.216;2024-02-23T17:30:45;8.90;99.90
1678;DHT22;6034;46.864;15.216;2024-02-23T17:33:12;8.90;99.90
1678;DHT22;6034;46.864;15.216;2024-02-23T17:35:40;8.90;99.90
1678;DHT22;6034;46.864;15.216;2024-02-23T17:38:08;8.90;99.90
1678;DHT22;6034;46.864;15.216;2024-02-23T17:40:37;9.00;99.90
1678;DHT22;6034;46.864;15.216;2024-02-23T17:43:05;9.00;99.90
1678;DHT22;6034;46.864;15.216;2024-02-23T17:45:32;8.90;99.90
1678;DHT22;6034;46.864;15.216;2024-02-23T17:48:00;8.90;99.90
1678;DHT22;6034;46.864;15.216;2024-02-23T17:50:28;8.90;99.90
1678;DHT22;6034;46.864;15.216;2024-02-23T17:52:56;8.90;99.90
1678;DHT22;6034;46.864;15.216;2024-02-23T17:55:25;8.90;99.90
1678;DHT22;6034;46.864;15.216;2024-02-23T17:57:57;8.90;99.90
1678;DHT22;6034;46.864;15.216;2024-02-23T18:00:24;8.90;99.90
1678;DHT22;6034;46.864;15.216;2024-02-23T18:02:54;8.90;99.90
1678;DHT22;6034;46.864;15.216;2024-02-23T18:05:23;8.90;99.90
1678;DHT22;6034;46.864;15.216;2024-02-23T18:07:51;9.00;99.90
1678;DHT22;6034;46.864;15.216;2024-02-23T18:10:18;8.90;99.90
1678;DHT22;6034;46.864;15.216;2024-02-23T18:12:49;9.00;99.90
1678;DHT22;6034;46.864;15.216;2024-02-23T18:15:18;8.90;99.90
1678;DHT22;6034;46.864;15.216;2024-02-23T18:17:45;9.00;99.90
1678;DHT22;6034;46.864;15.216;2024-02-23T18:20:12;9.00;99.90
1678;DHT22;6034;46.864;15.216;2024-02-23T18:22:40;8.90;99.90
1678;DHT22;6034;46.864;15.216;2024-02-23T18:25:08;9.00;99.90
1678;DHT22;6034;46.864;15.216;2024-02-23T18:27:35;8.80;99.90
1678;DHT22;6034;46.864;15.216;2024-02-23T18:30:03;8.80;99.90
1678;DHT22;6034;46.864;15.216;2024-02-23T18:32:32;8.70;99.90
1678;DHT22;6034;46.864;15.216;2024-02-23T18:35:00;8.70;99.90
1678;DHT22;6034;46.864;15.216;2024-02-23T18:37:32;8.60;99.90
1678;DHT22;6034;46.864;15.216;2024-02-23T18:40:00;8.60;99.90
1678;DHT22;6034;46.864;15.216;2024-02-23T18:42:35;8.70;99.90
1678;DHT22;6034;46.864;15.216;2024-02-23T18:45:05;8.60;99.90
1678;DHT22;6034;46.864;15.216;2024-02-23T18:47:34;8.60;99.90
1678;DHT22;6034;46.864;15.216;2024-02-23T18:50:02;8.80;99.90
1678;DHT22;6034;46.864;15.216;2024-02-23T18:52:29;8.80;99.90
1678;DHT22;6034;46.864;15.216;2024-02-23T18:54:57;8.80;99.90
1678;DHT22;6034;46.864;15.216;2024-02-23T18:57:25;8.70;99.90
1678;DHT22;6034;46.864;15.216;2024-02-23T18:59:53;8.80;99.90
1678;DHT22;6034;46.864;15.216;2024-02-23T19:02:20;8.80;99.90
1678;DHT22;6034;46.864;15.216;2024-02-23T19:04:49;8.80;99.90
1678;DHT22;6034;46.864;15.216;2024-02-23T19:07:16;8.80;99.90
1678;DHT22;6034;46.864;15.216;2024-02-23T19:09:46;8.90;99.90
1678;DHT22;6034;46.864;15.216;2024-02-23T19:12:15;8.90;99.90
1678;DHT22;6034;46.864;15.216;2024-02-23T19:14:43;8.90;99.90
1678;DHT22;6034;46.864;15.216;2024-02-23T19:17:16;8.80;99.90
1678;DHT22;6034;46.864;15.216;2024-02-23T19:19:43;8.90;99.90
1678;DHT22;6034;46.864;15.216;2024-02-23T19:22:12;8.90;99.90
1678;DHT22;6034;46.864;15.216;2024-02-23T19:24:40;8.90;99.90
1678;DHT22;6034;46.864;15.216;2024-02-23T19:27:08;9.00;99.90
1678;DHT22;6034;46.864;15.216;2024-02-23T19:29:35;8.90;99.90
1678;DHT22;6034;46.864;15.216;2024-02-23T19:32:02;8.90;99.90
1678;DHT22;6034;46.864;15.216;2024-02-23T19:34:30;9.00;99.90
1678;DHT22;6034;46.864;15.216;2024-02-23T19:36:58;9.00;99.90
1678;DHT22;6034;46.864;15.216;2024-02-23T19:39:27;8.90;99.90
1678;DHT22;6034;46.864;15.216;2024-02-23T19:42:02;9.00;99.90
1678;DHT22;6034;46.864;15.216;2024-02-23T19:44:29;9.00;99.90
1678;DHT22;6034;46.864;15.216;2024-02-23T19:46:57;9.00;99.90
1678;DHT22;6034;46.864;15.216;2024-02-23T19:49:24;8.90;99.90
1678;DHT22;6034;46.864;15.216;2024-02-23T19:51:52;8.90;99.90
1678;DHT22;6034;46.864;15.216;2024-02-23T19:54:19;9.00;99.90
1678;DHT22;6034;46.864;15.216;2024-02-23T19:56:48;9.00;99.90
1678;DHT22;6034;46.864;15.216;2024-02-23T19:59:15;8.90;99.90
1678;DHT22;6034;46.864;15.216;2024-02-23T20:01:53;8.90;99.90
1678;DHT22;6034;46.864;15.216;2024-02-23T20:04:20;9.00;99.90
1678;DHT22;6034;46.864;15.216;2024-02-23T20:06:48;9.00;99.90
1678;DHT22;6034;46.864;15.216;2024-02-23T20:09:15;8.90;99.90
1678;DHT22;6034;46.864;15.216;2024-02-23T20:11:42;9.00;99.90
1678;DHT22;6034;46.864;15.216;2024-02-23T20:14:14;8.90;99.90
1678;DHT22;6034;46.864;15.216;2024-02-23T20:16:55;8.90;99.90
1678;DHT22;6034;46.864;15.216;2024-02-23T20:19:22;8.90;99.90
1678;DHT22;6034;46.864;15.216;2024-02-23T20:21:50;9.00;99.90
1678;DHT22;6034;46.864;15.216;2024-02-23T20:24:17;8.90;99.90
1678;DHT22;6034;46.864;15.216;2024-02-23T20:26:45;8.90;99.90
1678;DHT22;6034;46.864;15.216;2024-02-23T20:29:24;8.90;99.90
1678;DHT22;6034;46.864;15.216;2024-02-23T20:31:51;9.00;99.90
1678;DHT22;6034;46.864;15.216;2024-02-23T20:34:18;8.70;99.90
1678;DHT22;6034;46.864;15.216;2024-02-23T20:36:46;8.80;99.90
1678;DHT22;6034;46.864;15.216;2024-02-23T20:39:14;8.80;99.90
1678;DHT22;6034;46.864;15.216;2024-02-23T20:41:41;8.90;99.90
1678;DHT22;6034;46.864;15.216;2024-02-23T20:44:08;8.60;99.90
1678;DHT22;6034;46.864;15.216;2024-02-23T20:46:37;8.70;99.90
1678;DHT22;6034;46.864;15.216;2024-02-23T20:49:05;8.90;99.90
1678;DHT22;6034;46.864;15.216;2024-02-23T20:51:33;8.90;99.90
1678;DHT22;6034;46.864;15.216;2024-02-23T20:54:00;8.90;99.90
1678;DHT22;6034;46.864;15.216;2024-02-23T20:56:28;8.90;99.90
1678;DHT22;6034;46.864;15.216;2024-02-23T20:58:58;8.90;99.90
1678;DHT22;6034;46.864;15.216;2024-02-23T21:01:25;8.90;99.90
1678;DHT22;6034;46.864;15.216;2024-02-23T21:03:54;8.90;99.90
1678;DHT22;6034;46.864;15.216;2024-02-23T21:06:29;8.90;99.90
1678;DHT22;6034;46.864;15.216;2024-02-23T21:08:58;8.90;99.90
1678;DHT22;6034;46.864;15.216;2024-02-23T21:11:26;8.90;99.90
1678;DHT22;6034;46.864;15.216;2024-02-23T21:13:53;8.90;99.90
1678;DHT22;6034;46.864;15.216;2024-02-23T21:16:22;8.80;99.90
1678;DHT22;6034;46.864;15.216;2024-02-23T21:18:49;8.90;99.90
1678;DHT22;6034;46.864;15.216;2024-02-23T21:21:18;8.90;99.90
1678;DHT22;6034;46.864;15.216;2024-02-23T21:23:47;8.90;99.90
1678;DHT22;6034;46.864;15.216;2024-02-23T21:26:14;8.90;99.90
1678;DHT22;6034;46.864;15.216;2024-02-23T21:28:41;8.90;99.90
1678;DHT22;6034;46.864;15.216;2024-02-23T21:31:09;8.90;99.90
1678;DHT22;6034;46.864;15.216;2024-02-23T21:33:36;8.90;99.90
1678;DHT22;6034;46.864;15.216;2024-02-23T21:36:05;8.90;99.90
1678;DHT22;6034;46.864;15.216;2024-02-23T21:38:34;8.90;99.90
1678;DHT22;6034;46.864;15.216;2024-02-23T21:41:01;8.90;99.90
1678;DHT22;6034;46.864;15.216;2024-02-23T21:43:29;8.80;99.90
1678;DHT22;6034;46.864;15.216;2024-02-23T21:45:56;8.90;99.90
1678;DHT22;6034;46.864;15.216;2024-02-23T21:48:24;8.90;99.90
1678;DHT22;6034;46.864;15.216;2024-02-23T21:50:52;8.90;99.90
1678;DHT22;6034;46.864;15.216;2024-02-23T21:53:20;8.90;99.90
1678;DHT22;6034;46.864;15.216;2024-02-23T21:55:48;8.90;99.90
1678;DHT22;6034;46.864;15.216;2024-02-23T21:58:16;8.90;99.90
1678;DHT22;6034;46.864;15.216;2024-02-23T22:00:43;8.80;99.90
1678;DHT22;6034;46.864;15.216;2024-02-23T22:03:10;8.90;99.90
1678;DHT22;6034;46.864;15.216;2024-02-23T22:05:38;8.80;99.90
1678;DHT22;6034;46.864;15.216;2024-02-23T22:08:06;8.90;99.90